sensor_id;sensor_type;location;lat;lon;timestamp;temperature;humidity
9425;DHT22;17139;52.140;11.636;2022-09-01T00:02:13;15.00;48.70
9425;DHT22;17139;52.140;11.636;2022-09-01T00:04:42;14.70;48.60
9425;DHT22;17139;52.140;11.636;2022-09-01T00:07:11;15.40;50.00
9425;DHT22;17139;52.140;11.636;2022-09-01T00:09:38;15.10;48.80
9425;DHT22;17139;52.140;11.636;2022-09-01T00:12:08;14.80;48.80
9425;DHT22;17139;52.140;11.636;2022-09-01T00:14:38;14.60;49.00
9425;DHT22;17139;52.140;11.636;2022-09-01T00:17:08;14.40;49.10
9425;DHT22;17139;52.140;11.636;2022-09-01T00:19:36;14.30;49.20
9425;DHT22;17139;52.140;11.636;2022-09-01T00:22:05;14.30;49.20
9425;DHT22;17139;52.140;11.636;2022-09-01T00:24:32;14.20;49.20
9425;DHT22;17139;52.140;11.636;2022-09-01T00:26:59;14.10;49.10
9425;DHT22;17139;52.140;11.636;2022-09-01T00:29:28;14.10;49.10
9425;DHT22;17139;52.140;11.636;2022-09-01T00:31:55;14.10;49.20
9425;DHT22;17139;52.140;11.636;2022-09-01T00:34:22;14.00;49.20
9425;DHT22;17139;52.140;11.636;2022-09-01T00:36:49;14.00;49.10
9425;DHT22;17139;52.140;11.636;2022-09-01T00:39:16;14.00;49.10
9425;DHT22;17139;52.140;11.636;2022-09-01T00:41:44;14.70;50.70
9425;DHT22;17139;52.140;11.636;2022-09-01T00:44:14;14.60;49.20
9425;DHT22;17139;52.140;11.636;2022-09-01T00:46:46;14.30;49.10
9425;DHT22;17139;52.140;11.636;2022-09-01T00:49:18;14.20;49.20
9425;DHT22;17139;52.140;11.636;2022-09-01T00:51:49;14.10;49.30
9425;DHT22;17139;52.140;11.636;2022-09-01T00:54:20;14.00;49.40
9425;DHT22;17139;52.140;11.636;2022-09-01T00:56:48;14.00;49.40
9425;DHT22;17139;52.140;11.636;2022-09-01T00:59:18;14.00;49.40
9425;DHT22;17139;52.140;11.636;2022-09-01T01:01:47;14.00;49.40
9425;DHT22;17139;52.140;11.636;2022-09-01T01:04:15;14.00;49.40
9425;DHT22;17139;52.140;11.636;2022-09-01T01:06:44;13.90;49.30
9425;DHT22;17139;52.140;11.636;2022-09-01T01:09:15;14.60;50.90
9425;DHT22;17139;52.140;11.636;2022-09-01T01:11:42;14.40;49.30
9425;DHT22;17139;52.140;11.636;2022-09-01T01:14:13;14.20;49.20
9425;DHT22;17139;52.140;11.636;2022-09-01T01:16:45;14.10;49.20
9425;DHT22;17139;52.140;11.636;2022-09-01T01:19:19;14.10;49.30
9425;DHT22;17139;52.140;11.636;2022-09-01T01:22:27;14.10;49.50
9425;DHT22;17139;52.140;11.636;2022-09-01T01:25:14;14.00;49.40
9425;DHT22;17139;52.140;11.636;2022-09-01T01:27:44;14.00;49.30
9425;DHT22;17139;52.140;11.636;2022-09-01T01:30:12;14.00;49.40
9425;DHT22;17139;52.140;11.636;2022-09-01T01:32:39;14.00;49.30
9425;DHT22;17139;52.140;11.636;2022-09-01T01:35:09;14.00;49.30
9425;DHT22;17139;52.140;11.636;2022-09-01T01:37:39;14.00;49.90
9425;DHT22;17139;52.140;11.636;2022-09-01T01:40:15;14.00;49.20
9425;DHT22;17139;52.140;11.636;2022-09-01T01:42:44;14.00;49.20
9425;DHT22;17139;52.140;11.636;2022-09-01T01:45:13;14.30;50.40
9425;DHT22;17139;52.140;11.636;2022-09-01T01:47:43;14.40;49.40
9425;DHT22;17139;52.140;11.636;2022-09-01T01:50:16;14.30;49.30
9425;DHT22;17139;52.140;11.636;2022-09-01T01:52:43;14.50;50.30
9425;DHT22;17139;52.140;11.636;2022-09-01T01:55:10;14.40;49.30
9425;DHT22;17139;52.140;11.636;2022-09-01T01:57:39;14.40;49.30
9425;DHT22;17139;52.140;11.636;2022-09-01T02:00:16;14.30;49.30
9425;DHT22;17139;52.140;11.636;2022-09-01T02:02:45;14.20;49.20
9425;DHT22;17139;52.140;11.636;2022-09-01T02:05:19;14.30;49.30
9425;DHT22;17139;52.140;11.636;2022-09-01T02:07:51;14.20;49.20
9425;DHT22;17139;52.140;11.636;2022-09-01T02:10:24;14.20;49.30
9425;DHT22;17139;52.140;11.636;2022-09-01T02:12:53;14.20;49.30
9425;DHT22;17139;52.140;11.636;2022-09-01T02:15:21;14.30;49.40
9425;DHT22;17139;52.140;11.636;2022-09-01T02:17:48;14.20;49.30
9425;DHT22;17139;52.140;11.636;2022-09-01T02:20:15;14.30;49.30
9425;DHT22;17139;52.140;11.636;2022-09-01T02:22:42;14.20;49.30
9425;DHT22;17139;52.140;11.636;2022-09-01T02:25:11;14.20;49.40
9425;DHT22;17139;52.140;11.636;2022-09-01T02:27:41;14.20;49.40
9425;DHT22;17139;52.140;11.636;2022-09-01T02:30:11;14.30;49.50
9425;DHT22;17139;52.140;11.636;2022-09-01T02:32:38;14.30;49.60
9425;DHT22;17139;52.140;11.636;2022-09-01T02:35:07;14.20;49.50
9425;DHT22;17139;52.140;11.636;2022-09-01T02:37:35;14.20;49.50
9425;DHT22;17139;52.140;11.636;2022-09-01T02:40:06;14.30;49.60
9425;DHT22;17139;52.140;11.636;2022-09-01T02:42:36;14.30;49.60
9425;DHT22;17139;52.140;11.636;2022-09-01T02:45:06;14.40;49.60
9425;DHT22;17139;52.140;11.636;2022-09-01T02:47:38;14.30;49.50
9425;DHT22;17139;52.140;11.636;2022-09-01T02:50:13;14.40;49.60
9425;DHT22;17139;52.140;11.636;2022-09-01T02:52:42;14.40;49.40
9425;DHT22;17139;52.140;11.636;2022-09-01T02:55:10;14.40;49.50
9425;DHT22;17139;52.140;11.636;2022-09-01T02:57:37;14.40;49.60
9425;DHT22;17139;52.140;11.636;2022-09-01T03:00:07;14.40;49.60
9425;DHT22;17139;52.140;11.636;2022-09-01T03:02:48;14.40;49.60
9425;DHT22;17139;52.140;11.636;2022-09-01T03:05:17;15.00;51.10
9425;DHT22;17139;52.140;11.636;2022-09-01T03:07:51;14.80;49.60
9425;DHT22;17139;52.140;11.636;2022-09-01T03:10:22;14.70;49.60
9425;DHT22;17139;52.140;11.636;2022-09-01T03:12:52;14.60;49.50
9425;DHT22;17139;52.140;11.636;2022-09-01T03:15:19;14.60;50.30
9425;DHT22;17139;52.140;11.636;2022-09-01T03:17:49;14.50;49.60
9425;DHT22;17139;52.140;11.636;2022-09-01T03:20:17;14.50;49.70
9425;DHT22;17139;52.140;11.636;2022-09-01T03:22:47;14.40;49.60
9425;DHT22;17139;52.140;11.636;2022-09-01T03:25:14;14.50;49.70
9425;DHT22;17139;52.140;11.636;2022-09-01T03:27:41;14.50;49.70
9425;DHT22;17139;52.140;11.636;2022-09-01T03:30:09;14.40;49.60
9425;DHT22;17139;52.140;11.636;2022-09-01T03:32:36;14.40;49.60
9425;DHT22;17139;52.140;11.636;2022-09-01T03:35:05;14.40;49.70
9425;DHT22;17139;52.140;11.636;2022-09-01T03:37:33;14.40;49.70
9425;DHT22;17139;52.140;11.636;2022-09-01T03:40:02;14.40;49.70
9425;DHT22;17139;52.140;11.636;2022-09-01T03:42:30;14.40;49.70
9425;DHT22;17139;52.140;11.636;2022-09-01T03:44:57;14.40;49.70
9425;DHT22;17139;52.140;11.636;2022-09-01T03:47:24;14.40;49.70
9425;DHT22;17139;52.140;11.636;2022-09-01T03:49:51;14.40;49.60
9425;DHT22;17139;52.140;11.636;2022-09-01T03:52:21;14.40;49.50
9425;DHT22;17139;52.140;11.636;2022-09-01T03:54:52;14.40;49.60
9425;DHT22;17139;52.140;11.636;2022-09-01T03:57:20;14.40;49.60
9425;DHT22;17139;52.140;11.636;2022-09-01T03:59:47;14.40;49.50
9425;DHT22;17139;52.140;11.636;2022-09-01T04:02:15;14.40;49.50
9425;DHT22;17139;52.140;11.636;2022-09-01T04:04:42;14.50;49.50
9425;DHT22;17139;52.140;11.636;2022-09-01T04:07:09;14.40;49.50
9425;DHT22;17139;52.140;11.636;2022-09-01T04:09:37;14.50;49.50
9425;DHT22;17139;52.140;11.636;2022-09-01T04:12:05;14.50;49.50
9425;DHT22;17139;52.140;11.636;2022-09-01T04:14:33;14.50;49.40
9425;DHT22;17139;52.140;11.636;2022-09-01T04:17:00;14.50;49.40
9425;DHT22;17139;52.140;11.636;2022-09-01T04:19:50;14.50;49.40
9425;DHT22;17139;52.140;11.636;2022-09-01T04:22:17;14.40;49.30
9425;DHT22;17139;52.140;11.636;2022-09-01T04:24:46;14.40;49.40
9425;DHT22;17139;52.140;11.636;2022-09-01T04:27:14;14.50;49.50
9425;DHT22;17139;52.140;11.636;2022-09-01T04:29:42;14.60;49.70
9425;DHT22;17139;52.140;11.636;2022-09-01T04:32:11;14.60;49.40
9425;DHT22;17139;52.140;11.636;2022-09-01T04:34:40;15.40;50.10
9425;DHT22;17139;52.140;11.636;2022-09-01T04:37:09;15.20;49.30
9425;DHT22;17139;52.140;11.636;2022-09-01T04:39:38;15.80;49.50
9425;DHT22;17139;52.140;11.636;2022-09-01T04:42:06;15.40;48.90
9425;DHT22;17139;52.140;11.636;2022-09-01T04:44:35;15.30;49.40
9425;DHT22;17139;52.140;11.636;2022-09-01T04:47:02;15.10;49.20
9425;DHT22;17139;52.140;11.636;2022-09-01T04:49:35;15.00;49.40
9425;DHT22;17139;52.140;11.636;2022-09-01T04:52:03;14.80;49.40
9425;DHT22;17139;52.140;11.636;2022-09-01T04:54:30;14.80;49.60
9425;DHT22;17139;52.140;11.636;2022-09-01T04:57:01;14.70;49.60
9425;DHT22;17139;52.140;11.636;2022-09-01T04:59:32;14.70;49.60
9425;DHT22;17139;52.140;11.636;2022-09-01T05:01:59;14.70;49.60
9425;DHT22;17139;52.140;11.636;2022-09-01T05:04:28;14.60;49.60
9425;DHT22;17139;52.140;11.636;2022-09-01T05:06:58;15.20;49.90
9425;DHT22;17139;52.140;11.636;2022-09-01T05:09:27;15.00;49.10
9425;DHT22;17139;52.140;11.636;2022-09-01T05:11:55;14.80;49.30
9425;DHT22;17139;52.140;11.636;2022-09-01T05:14:23;15.50;49.50
9425;DHT22;17139;52.140;11.636;2022-09-01T05:16:55;15.30;48.90
9425;DHT22;17139;52.140;11.636;2022-09-01T05:19:25;15.10;49.20
9425;DHT22;17139;52.140;11.636;2022-09-01T05:21:54;14.90;49.20
9425;DHT22;17139;52.140;11.636;2022-09-01T05:24:22;14.80;49.30
9425;DHT22;17139;52.140;11.636;2022-09-01T05:26:54;14.80;49.40
9425;DHT22;17139;52.140;11.636;2022-09-01T05:29:22;14.80;49.50
9425;DHT22;17139;52.140;11.636;2022-09-01T05:31:53;14.80;49.40
9425;DHT22;17139;52.140;11.636;2022-09-01T05:34:21;14.90;49.40
9425;DHT22;17139;52.140;11.636;2022-09-01T05:36:52;14.90;49.30
9425;DHT22;17139;52.140;11.636;2022-09-01T05:39:20;14.90;49.30
9425;DHT22;17139;52.140;11.636;2022-09-01T05:41:47;15.00;49.50
9425;DHT22;17139;52.140;11.636;2022-09-01T05:44:14;15.10;49.30
9425;DHT22;17139;52.140;11.636;2022-09-01T05:46:43;15.00;49.10
9425;DHT22;17139;52.140;11.636;2022-09-01T05:49:13;15.00;49.20
9425;DHT22;17139;52.140;11.636;2022-09-01T05:51:42;15.00;49.30
9425;DHT22;17139;52.140;11.636;2022-09-01T05:54:10;15.00;49.30
9425;DHT22;17139;52.140;11.636;2022-09-01T05:56:38;15.00;49.40
9425;DHT22;17139;52.140;11.636;2022-09-01T05:59:07;15.00;49.40
9425;DHT22;17139;52.140;11.636;2022-09-01T06:01:35;14.90;49.30
9425;DHT22;17139;52.140;11.636;2022-09-01T06:04:07;14.90;49.50
9425;DHT22;17139;52.140;11.636;2022-09-01T06:06:40;14.80;49.60
9425;DHT22;17139;52.140;11.636;2022-09-01T06:09:11;15.60;49.70
9425;DHT22;17139;52.140;11.636;2022-09-01T06:11:39;15.30;49.30
9425;DHT22;17139;52.140;11.636;2022-09-01T06:14:06;15.00;49.60
9425;DHT22;17139;52.140;11.636;2022-09-01T06:16:35;15.60;49.80
9425;DHT22;17139;52.140;11.636;2022-09-01T06:19:03;15.30;49.50
9425;DHT22;17139;52.140;11.636;2022-09-01T06:21:30;15.00;49.70
9425;DHT22;17139;52.140;11.636;2022-09-01T06:24:03;14.90;50.00
9425;DHT22;17139;52.140;11.636;2022-09-01T06:26:33;14.80;50.10
9425;DHT22;17139;52.140;11.636;2022-09-01T06:29:05;14.70;50.20
9425;DHT22;17139;52.140;11.636;2022-09-01T06:31:35;14.70;50.20
9425;DHT22;17139;52.140;11.636;2022-09-01T06:34:05;14.70;50.30
9425;DHT22;17139;52.140;11.636;2022-09-01T06:36:35;14.70;50.30
9425;DHT22;17139;52.140;11.636;2022-09-01T06:39:04;14.70;50.10
9425;DHT22;17139;52.140;11.636;2022-09-01T06:41:31;14.80;50.30
9425;DHT22;17139;52.140;11.636;2022-09-01T06:43:58;14.80;50.10
9425;DHT22;17139;52.140;11.636;2022-09-01T06:46:26;14.80;50.00
9425;DHT22;17139;52.140;11.636;2022-09-01T06:48:54;14.90;50.00
9425;DHT22;17139;52.140;11.636;2022-09-01T06:51:24;15.00;49.90
9425;DHT22;17139;52.140;11.636;2022-09-01T06:53:53;15.10;49.80
9425;DHT22;17139;52.140;11.636;2022-09-01T06:56:26;15.20;49.70
9425;DHT22;17139;52.140;11.636;2022-09-01T06:58:56;15.20;49.50
9425;DHT22;17139;52.140;11.636;2022-09-01T07:01:24;15.30;49.30
9425;DHT22;17139;52.140;11.636;2022-09-01T07:03:53;15.30;49.10
9425;DHT22;17139;52.140;11.636;2022-09-01T07:06:22;15.40;49.10
9425;DHT22;17139;52.140;11.636;2022-09-01T07:08:52;15.40;49.10
9425;DHT22;17139;52.140;11.636;2022-09-01T07:11:22;15.50;49.10
9425;DHT22;17139;52.140;11.636;2022-09-01T07:13:55;15.60;49.00
9425;DHT22;17139;52.140;11.636;2022-09-01T07:16:25;15.60;48.80
9425;DHT22;17139;52.140;11.636;2022-09-01T07:18:53;16.20;47.90
9425;DHT22;17139;52.140;11.636;2022-09-01T07:21:22;16.10;47.80
9425;DHT22;17139;52.140;11.636;2022-09-01T07:23:49;16.00;47.70
9425;DHT22;17139;52.140;11.636;2022-09-01T07:26:17;16.00;48.20
9425;DHT22;17139;52.140;11.636;2022-09-01T07:28:45;15.90;48.20
9425;DHT22;17139;52.140;11.636;2022-09-01T07:31:20;16.00;48.30
9425;DHT22;17139;52.140;11.636;2022-09-01T07:33:49;15.90;48.10
9425;DHT22;17139;52.140;11.636;2022-09-01T07:36:18;16.00;48.20
9425;DHT22;17139;52.140;11.636;2022-09-01T07:38:45;16.00;48.10
9425;DHT22;17139;52.140;11.636;2022-09-01T07:41:16;16.10;48.10
9425;DHT22;17139;52.140;11.636;2022-09-01T07:43:43;16.10;47.80
9425;DHT22;17139;52.140;11.636;2022-09-01T07:46:10;16.10;47.80
9425;DHT22;17139;52.140;11.636;2022-09-01T07:48:39;16.20;47.90
9425;DHT22;17139;52.140;11.636;2022-09-01T07:51:06;16.20;47.90
9425;DHT22;17139;52.140;11.636;2022-09-01T07:53:34;16.30;48.00
9425;DHT22;17139;52.140;11.636;2022-09-01T07:56:07;16.30;47.90
9425;DHT22;17139;52.140;11.636;2022-09-01T07:58:35;16.30;47.90
9425;DHT22;17139;52.140;11.636;2022-09-01T08:01:06;16.40;48.10
9425;DHT22;17139;52.140;11.636;2022-09-01T08:03:33;16.40;48.00
9425;DHT22;17139;52.140;11.636;2022-09-01T08:06:04;16.40;48.70
9425;DHT22;17139;52.140;11.636;2022-09-01T08:08:32;16.50;48.10
9425;DHT22;17139;52.140;11.636;2022-09-01T08:11:00;16.60;48.00
9425;DHT22;17139;52.140;11.636;2022-09-01T08:13:27;16.60;47.90
9425;DHT22;17139;52.140;11.636;2022-09-01T08:15:54;16.60;47.90
9425;DHT22;17139;52.140;11.636;2022-09-01T08:18:21;16.60;47.80
9425;DHT22;17139;52.140;11.636;2022-09-01T08:20:48;16.70;47.70
9425;DHT22;17139;52.140;11.636;2022-09-01T08:23:18;16.80;47.70
9425;DHT22;17139;52.140;11.636;2022-09-01T08:25:46;16.80;47.70
9425;DHT22;17139;52.140;11.636;2022-09-01T08:28:15;17.50;46.00
9425;DHT22;17139;52.140;11.636;2022-09-01T08:30:43;17.30;46.50
9425;DHT22;17139;52.140;11.636;2022-09-01T08:33:10;17.20;46.90
9425;DHT22;17139;52.140;11.636;2022-09-01T08:35:39;17.20;47.20
9425;DHT22;17139;52.140;11.636;2022-09-01T08:38:06;17.20;47.20
9425;DHT22;17139;52.140;11.636;2022-09-01T08:40:35;17.20;47.30
9425;DHT22;17139;52.140;11.636;2022-09-01T08:43:10;17.20;47.10
9425;DHT22;17139;52.140;11.636;2022-09-01T08:45:46;17.30;47.10
9425;DHT22;17139;52.140;11.636;2022-09-01T08:48:19;17.30;47.10
9425;DHT22;17139;52.140;11.636;2022-09-01T08:50:52;18.10;45.30
9425;DHT22;17139;52.140;11.636;2022-09-01T08:53:25;17.80;46.00
9425;DHT22;17139;52.140;11.636;2022-09-01T08:55:56;17.80;46.40
9425;DHT22;17139;52.140;11.636;2022-09-01T08:58:25;17.90;45.20
9425;DHT22;17139;52.140;11.636;2022-09-01T09:00:55;17.80;45.80
9425;DHT22;17139;52.140;11.636;2022-09-01T09:03:31;17.80;46.20
9425;DHT22;17139;52.140;11.636;2022-09-01T09:06:09;17.70;46.10
9425;DHT22;17139;52.140;11.636;2022-09-01T09:08:52;17.70;46.20
9425;DHT22;17139;52.140;11.636;2022-09-01T09:14:25;17.80;46.20
9425;DHT22;17139;52.140;11.636;2022-09-01T09:16:54;17.90;46.20
9425;DHT22;17139;52.140;11.636;2022-09-01T09:19:24;18.00;45.90
9425;DHT22;17139;52.140;11.636;2022-09-01T09:21:53;18.30;44.60
9425;DHT22;17139;52.140;11.636;2022-09-01T09:24:26;18.30;45.00
9425;DHT22;17139;52.140;11.636;2022-09-01T09:26:56;18.20;45.30
9425;DHT22;17139;52.140;11.636;2022-09-01T09:29:25;18.70;43.60
9425;DHT22;17139;52.140;11.636;2022-09-01T09:32:02;18.50;44.60
9425;DHT22;17139;52.140;11.636;2022-09-01T09:34:33;18.40;45.00
9425;DHT22;17139;52.140;11.636;2022-09-01T09:37:22;18.40;44.70
9425;DHT22;17139;52.140;11.636;2022-09-01T09:40:09;18.40;45.10
9425;DHT22;17139;52.140;11.636;2022-09-01T09:42:40;18.40;45.20
9425;DHT22;17139;52.140;11.636;2022-09-01T09:45:20;18.40;45.10
9425;DHT22;17139;52.140;11.636;2022-09-01T09:47:48;18.40;45.10
9425;DHT22;17139;52.140;11.636;2022-09-01T09:50:22;18.50;45.30
9425;DHT22;17139;52.140;11.636;2022-09-01T09:52:51;18.70;44.90
9425;DHT22;17139;52.140;11.636;2022-09-01T09:55:25;18.70;45.10
9425;DHT22;17139;52.140;11.636;2022-09-01T09:57:57;18.70;45.80
9425;DHT22;17139;52.140;11.636;2022-09-01T10:00:27;19.10;43.90
9425;DHT22;17139;52.140;11.636;2022-09-01T10:02:57;18.90;44.60
9425;DHT22;17139;52.140;11.636;2022-09-01T10:05:38;18.80;44.50
9425;DHT22;17139;52.140;11.636;2022-09-01T10:08:07;18.90;44.70
9425;DHT22;17139;52.140;11.636;2022-09-01T10:10:40;18.80;44.90
9425;DHT22;17139;52.140;11.636;2022-09-01T10:13:11;18.80;44.50
9425;DHT22;17139;52.140;11.636;2022-09-01T10:15:39;18.90;44.40
9425;DHT22;17139;52.140;11.636;2022-09-01T10:18:11;18.90;44.00
9425;DHT22;17139;52.140;11.636;2022-09-01T10:20:45;18.90;44.00
9425;DHT22;17139;52.140;11.636;2022-09-01T10:23:14;18.90;44.00
9425;DHT22;17139;52.140;11.636;2022-09-01T10:25:42;19.40;41.30
9425;DHT22;17139;52.140;11.636;2022-09-01T10:28:15;19.30;42.70
9425;DHT22;17139;52.140;11.636;2022-09-01T10:30:44;19.20;43.00
9425;DHT22;17139;52.140;11.636;2022-09-01T10:33:14;19.90;40.50
9425;DHT22;17139;52.140;11.636;2022-09-01T10:35:44;19.60;41.90
9425;DHT22;17139;52.140;11.636;2022-09-01T10:38:16;19.40;42.60
9425;DHT22;17139;52.140;11.636;2022-09-01T10:40:46;19.40;42.80
9425;DHT22;17139;52.140;11.636;2022-09-01T10:43:37;19.30;42.60
9425;DHT22;17139;52.140;11.636;2022-09-01T10:49:19;19.20;42.10
9425;DHT22;17139;52.140;11.636;2022-09-01T10:51:47;19.20;42.00
9425;DHT22;17139;52.140;11.636;2022-09-01T10:57:43;19.60;40.80
9425;DHT22;17139;52.140;11.636;2022-09-01T11:00:46;19.60;41.90
9425;DHT22;17139;52.140;11.636;2022-09-01T11:06:45;20.50;38.80
9425;DHT22;17139;52.140;11.636;2022-09-01T11:09:22;20.30;41.00
9425;DHT22;17139;52.140;11.636;2022-09-01T11:12:05;20.10;41.50
9425;DHT22;17139;52.140;11.636;2022-09-01T11:14:46;19.80;41.60
9425;DHT22;17139;52.140;11.636;2022-09-01T11:17:17;19.60;42.30
9425;DHT22;17139;52.140;11.636;2022-09-01T11:19:52;19.50;42.90
9425;DHT22;17139;52.140;11.636;2022-09-01T11:22:25;19.50;42.70
9425;DHT22;17139;52.140;11.636;2022-09-01T11:31:02;20.40;40.20
9425;DHT22;17139;52.140;11.636;2022-09-01T11:33:52;19.90;41.70
9425;DHT22;17139;52.140;11.636;2022-09-01T11:36:26;20.20;40.80
9425;DHT22;17139;52.140;11.636;2022-09-01T11:39:02;20.00;41.80
9425;DHT22;17139;52.140;11.636;2022-09-01T11:41:56;19.90;42.00
9425;DHT22;17139;52.140;11.636;2022-09-01T11:44:28;19.80;42.40
9425;DHT22;17139;52.140;11.636;2022-09-01T11:47:01;19.70;42.30
9425;DHT22;17139;52.140;11.636;2022-09-01T11:49:32;19.90;42.50
9425;DHT22;17139;52.140;11.636;2022-09-01T11:52:00;20.00;42.40
9425;DHT22;17139;52.140;11.636;2022-09-01T11:54:29;20.10;41.90
9425;DHT22;17139;52.140;11.636;2022-09-01T11:57:17;20.00;41.80
9425;DHT22;17139;52.140;11.636;2022-09-01T11:59:44;19.90;42.30
9425;DHT22;17139;52.140;11.636;2022-09-01T12:02:17;20.60;39.50
9425;DHT22;17139;52.140;11.636;2022-09-01T12:04:45;20.20;41.00
9425;DHT22;17139;52.140;11.636;2022-09-01T12:07:27;20.00;41.70
9425;DHT22;17139;52.140;11.636;2022-09-01T12:09:55;20.00;42.20
9425;DHT22;17139;52.140;11.636;2022-09-01T12:12:35;20.10;42.50
9425;DHT22;17139;52.140;11.636;2022-09-01T12:15:06;20.20;42.00
9425;DHT22;17139;52.140;11.636;2022-09-01T12:17:34;20.20;41.70
9425;DHT22;17139;52.140;11.636;2022-09-01T12:20:25;20.10;41.60
9425;DHT22;17139;52.140;11.636;2022-09-01T12:22:53;19.90;41.70
9425;DHT22;17139;52.140;11.636;2022-09-01T12:25:22;19.80;42.30
9425;DHT22;17139;52.140;11.636;2022-09-01T12:27:50;20.10;42.50
9425;DHT22;17139;52.140;11.636;2022-09-01T12:30:18;20.30;42.20
9425;DHT22;17139;52.140;11.636;2022-09-01T12:32:46;20.70;40.80
9425;DHT22;17139;52.140;11.636;2022-09-01T12:35:16;20.90;41.50
9425;DHT22;17139;52.140;11.636;2022-09-01T12:37:48;20.90;41.10
9425;DHT22;17139;52.140;11.636;2022-09-01T12:40:22;21.30;39.70
9425;DHT22;17139;52.140;11.636;2022-09-01T12:42:51;21.30;40.60
9425;DHT22;17139;52.140;11.636;2022-09-01T12:45:37;21.80;38.50
9425;DHT22;17139;52.140;11.636;2022-09-01T12:48:04;21.30;40.00
9425;DHT22;17139;52.140;11.636;2022-09-01T12:50:43;21.00;41.10
9425;DHT22;17139;52.140;11.636;2022-09-01T12:53:22;20.70;41.10
9425;DHT22;17139;52.140;11.636;2022-09-01T12:56:03;20.50;41.50
9425;DHT22;17139;52.140;11.636;2022-09-01T12:58:31;20.40;41.80
9425;DHT22;17139;52.140;11.636;2022-09-01T13:01:01;21.10;40.10
9425;DHT22;17139;52.140;11.636;2022-09-01T13:03:30;20.90;40.90
9425;DHT22;17139;52.140;11.636;2022-09-01T13:05:59;20.60;40.70
9425;DHT22;17139;52.140;11.636;2022-09-01T13:08:29;21.00;38.50
9425;DHT22;17139;52.140;11.636;2022-09-01T13:11:01;20.60;40.00
9425;DHT22;17139;52.140;11.636;2022-09-01T13:13:29;20.30;40.90
9425;DHT22;17139;52.140;11.636;2022-09-01T13:15:57;20.20;41.60
9425;DHT22;17139;52.140;11.636;2022-09-01T13:18:26;20.20;41.30
9425;DHT22;17139;52.140;11.636;2022-09-01T13:20:54;20.40;41.50
9425;DHT22;17139;52.140;11.636;2022-09-01T13:23:22;20.60;41.50
9425;DHT22;17139;52.140;11.636;2022-09-01T13:25:51;20.80;41.50
9425;DHT22;17139;52.140;11.636;2022-09-01T13:28:18;20.90;41.60
9425;DHT22;17139;52.140;11.636;2022-09-01T13:30:52;20.80;41.30
9425;DHT22;17139;52.140;11.636;2022-09-01T13:33:20;20.80;41.60
9425;DHT22;17139;52.140;11.636;2022-09-01T13:35:47;20.60;41.30
9425;DHT22;17139;52.140;11.636;2022-09-01T13:38:14;21.00;39.50
9425;DHT22;17139;52.140;11.636;2022-09-01T13:40:41;20.70;41.40
9425;DHT22;17139;52.140;11.636;2022-09-01T13:43:11;20.50;41.20
9425;DHT22;17139;52.140;11.636;2022-09-01T13:45:39;20.30;41.50
9425;DHT22;17139;52.140;11.636;2022-09-01T13:48:07;20.20;42.00
9425;DHT22;17139;52.140;11.636;2022-09-01T13:50:34;20.10;41.50
9425;DHT22;17139;52.140;11.636;2022-09-01T13:53:04;20.10;41.50
9425;DHT22;17139;52.140;11.636;2022-09-01T13:55:33;20.10;41.40
9425;DHT22;17139;52.140;11.636;2022-09-01T13:58:00;20.20;41.40
9425;DHT22;17139;52.140;11.636;2022-09-01T14:00:30;20.90;38.80
9425;DHT22;17139;52.140;11.636;2022-09-01T14:03:01;20.80;40.10
9425;DHT22;17139;52.140;11.636;2022-09-01T14:05:30;20.80;40.70
9425;DHT22;17139;52.140;11.636;2022-09-01T14:07:58;20.80;40.90
9425;DHT22;17139;52.140;11.636;2022-09-01T14:10:27;20.80;40.90
9425;DHT22;17139;52.140;11.636;2022-09-01T14:12:54;20.80;40.90
9425;DHT22;17139;52.140;11.636;2022-09-01T14:15:21;21.00;41.10
9425;DHT22;17139;52.140;11.636;2022-09-01T14:17:52;21.20;40.90
9425;DHT22;17139;52.140;11.636;2022-09-01T14:20:22;21.40;40.70
9425;DHT22;17139;52.140;11.636;2022-09-01T14:22:50;21.50;40.50
9425;DHT22;17139;52.140;11.636;2022-09-01T14:25:18;21.60;40.70
9425;DHT22;17139;52.140;11.636;2022-09-01T14:27:46;22.40;36.60
9425;DHT22;17139;52.140;11.636;2022-09-01T14:30:16;22.20;38.60
9425;DHT22;17139;52.140;11.636;2022-09-01T14:32:44;22.00;38.90
9425;DHT22;17139;52.140;11.636;2022-09-01T14:35:13;21.70;39.70
9425;DHT22;17139;52.140;11.636;2022-09-01T14:37:40;21.50;39.30
9425;DHT22;17139;52.140;11.636;2022-09-01T14:40:10;21.30;39.70
9425;DHT22;17139;52.140;11.636;2022-09-01T14:42:38;21.20;39.80
9425;DHT22;17139;52.140;11.636;2022-09-01T14:45:06;21.00;39.90
9425;DHT22;17139;52.140;11.636;2022-09-01T14:47:35;20.80;40.10
9425;DHT22;17139;52.140;11.636;2022-09-01T14:50:03;20.60;40.30
9425;DHT22;17139;52.140;11.636;2022-09-01T14:52:33;20.50;40.60
9425;DHT22;17139;52.140;11.636;2022-09-01T14:55:02;20.40;40.80
9425;DHT22;17139;52.140;11.636;2022-09-01T14:57:29;21.10;38.30
9425;DHT22;17139;52.140;11.636;2022-09-01T14:59:57;20.80;39.60
9425;DHT22;17139;52.140;11.636;2022-09-01T15:02:24;20.70;39.90
9425;DHT22;17139;52.140;11.636;2022-09-01T15:04:52;21.30;37.80
9425;DHT22;17139;52.140;11.636;2022-09-01T15:07:20;21.20;39.10
9425;DHT22;17139;52.140;11.636;2022-09-01T15:09:48;21.20;39.50
9425;DHT22;17139;52.140;11.636;2022-09-01T15:12:15;21.10;39.60
9425;DHT22;17139;52.140;11.636;2022-09-01T15:14:42;21.10;40.00
9425;DHT22;17139;52.140;11.636;2022-09-01T15:17:10;21.20;40.10
9425;DHT22;17139;52.140;11.636;2022-09-01T15:19:37;21.20;39.30
9425;DHT22;17139;52.140;11.636;2022-09-01T15:22:04;21.60;37.80
9425;DHT22;17139;52.140;11.636;2022-09-01T15:24:31;21.90;36.80
9425;DHT22;17139;52.140;11.636;2022-09-01T15:26:59;21.50;38.30
9425;DHT22;17139;52.140;11.636;2022-09-01T15:29:26;21.20;39.00
9425;DHT22;17139;52.140;11.636;2022-09-01T15:31:58;21.00;39.40
9425;DHT22;17139;52.140;11.636;2022-09-01T15:34:25;21.50;37.30
9425;DHT22;17139;52.140;11.636;2022-09-01T15:36:52;21.20;38.60
9425;DHT22;17139;52.140;11.636;2022-09-01T15:39:19;21.10;39.00
9425;DHT22;17139;52.140;11.636;2022-09-01T15:41:47;20.90;39.10
9425;DHT22;17139;52.140;11.636;2022-09-01T15:44:15;21.00;38.70
9425;DHT22;17139;52.140;11.636;2022-09-01T15:46:42;20.80;39.10
9425;DHT22;17139;52.140;11.636;2022-09-01T15:49:10;20.60;39.30
9425;DHT22;17139;52.140;11.636;2022-09-01T15:51:39;20.90;37.80
9425;DHT22;17139;52.140;11.636;2022-09-01T15:54:09;21.20;36.50
9425;DHT22;17139;52.140;11.636;2022-09-01T15:56:37;20.80;38.10
9425;DHT22;17139;52.140;11.636;2022-09-01T15:59:05;20.60;39.00
9425;DHT22;17139;52.140;11.636;2022-09-01T16:01:36;21.00;37.00
9425;DHT22;17139;52.140;11.636;2022-09-01T16:04:06;21.20;36.50
9425;DHT22;17139;52.140;11.636;2022-09-01T16:06:34;21.00;37.90
9425;DHT22;17139;52.140;11.636;2022-09-01T16:09:01;20.80;38.70